Search for airport 
image banner adimage banner adimage banner ad
image banner ad

SVMG - Margarita / Intl General En Jefe Santiago Marino

Located in Margarita, Venezuela

ICAO - SVMG, IATA - PMV

Data provided by Airmate  

General information

Coordinates: N10°54'45" W63°57'59"
Elevation is 74 feet MSL.
 
View others Airports in Nueva Esparta

Operational data

Special qualification required
Current time UTC:
Current local time:
Weather
METAR: SVMG 290803Z AUTO 30002KT NCD 24/24 Q1014
TAF: TAF SVMG 290400Z 2906/3006 09004KT 9999 SCT016 TX32/2917Z TN24/2907Z TEMPO 2906/2910 27008KT 9999 SCT016
View NOTAMs / SUP AIP / TFR affecting this airport [VIEW]
Communications frequencies: [VIEW]

Runways:

RWY identifierQFULength (ft)Width (ft)SurfaceLDA (ft)
0978°9843148ASP
27258°9843148

Airport contact information

Address: Margarita Venezuela

Satellite view of SVMG